Time;durP1;ratioP1;P1;durP2;ratioP2;P2;SDS_P1;SDS_P2;PMS_P1;PMS_P2;Temp;Humidity;BMP_temperature;BMP_pressure;BME280_temperature;BME280_humidity;BME280_pressure;Samples;Min_cycle;Max_cycle;Signal;HPM_P1;HPM_P2
2022/03/29 00:01:55;;;;;;;20.05;13.55;;;6.70;99.90;;;;;;5034383;28;20089;-66
2022/03/29 00:04:20;;;;;;;19.50;14.07;;;6.70;99.90;;;;;;5027191;28;20061;-65
2022/03/29 00:06:46;;;;;;;18.92;14.48;;;6.60;99.90;;;;;;5018843;28;20137;-65
2022/03/29 00:09:11;;;;;;;20.25;14.40;;;6.70;99.90;;;;;;5018575;28;20064;-67
2022/03/29 00:11:37;;;;;;;21.25;14.07;;;6.70;99.90;;;;;;5017602;28;20049;-66
2022/03/29 00:14:05;;;;;;;20.95;14.38;;;6.70;99.90;;;;;;5018753;28;20072;-65
2022/03/29 00:16:31;;;;;;;19.35;14.57;;;6.60;99.90;;;;;;5035936;28;20053;-66
2022/03/29 00:18:56;;;;;;;20.45;15.07;;;6.60;99.90;;;;;;5035781;28;20056;-67
2022/03/29 00:21:22;;;;;;;18.92;14.40;;;6.60;99.90;;;;;;5035874;28;20103;-66
2022/03/29 00:23:48;;;;;;;20.88;15.57;;;6.60;99.90;;;;;;5018547;28;20228;-65
2022/03/29 00:26:14;;;;;;;21.48;14.88;;;6.60;99.90;;;;;;5018414;28;20050;-67
2022/03/29 00:28:40;;;;;;;21.38;15.13;;;6.50;99.90;;;;;;5035683;28;20087;-65
2022/03/29 00:31:05;;;;;;;21.70;15.77;;;6.50;99.90;;;;;;5018722;28;20049;-66
2022/03/29 00:33:31;;;;;;;22.00;15.50;;;6.50;99.90;;;;;;5035598;28;20049;-65
2022/03/29 00:35:56;;;;;;;19.40;14.70;;;6.60;99.90;;;;;;5018586;28;20053;-66
2022/03/29 00:38:22;;;;;;;21.50;16.15;;;6.50;99.90;;;;;;5018214;28;20064;-66
2022/03/29 00:40:47;;;;;;;20.98;16.25;;;6.60;99.90;;;;;;5017803;28;20053;-65
2022/03/29 00:43:13;;;;;;;21.48;15.43;;;6.60;99.90;;;;;;5017659;28;20045;-66
2022/03/29 00:45:39;;;;;;;23.27;17.45;;;6.60;99.90;;;;;;5018744;28;20080;-65
2022/03/29 00:48:08;;;;;;;22.80;16.58;;;6.70;99.90;;;;;;5018207;28;20054;-66
2022/03/29 00:50:36;;;;;;;22.98;16.75;;;6.70;99.90;;;;;;5035671;28;20071;-67
2022/03/29 00:53:02;;;;;;;24.15;16.70;;;6.70;99.90;;;;;;5035377;28;20061;-66
2022/03/29 00:55:27;;;;;;;25.60;18.15;;;6.70;99.90;;;;;;5017474;28;20452;-65
2022/03/29 00:57:54;;;;;;;26.52;17.27;;;6.70;99.90;;;;;;5017366;28;20054;-65
2022/03/29 01:00:19;;;;;;;25.55;17.92;;;6.70;99.90;;;;;;5033312;28;20080;-67
2022/03/29 01:02:45;;;;;;;23.83;17.88;;;6.70;99.90;;;;;;5017499;28;20080;-65
2022/03/29 01:05:11;;;;;;;22.65;16.63;;;6.70;99.90;;;;;;5034902;28;20421;-66
2022/03/29 01:07:37;;;;;;;24.70;17.10;;;6.70;99.90;;;;;;5017742;28;20042;-65
2022/03/29 01:10:04;;;;;;;23.50;17.17;;;6.70;99.90;;;;;;5016976;28;20065;-65
2022/03/29 01:12:31;;;;;;;21.48;15.60;;;6.70;99.90;;;;;;5017493;28;20049;-65
2022/03/29 01:14:57;;;;;;;24.33;16.65;;;6.70;99.90;;;;;;5017635;28;20489;-66
2022/03/29 01:17:39;;;;;;;23.33;17.20;;;6.70;99.90;;;;;;5035490;28;20089;-66
2022/03/29 01:20:27;;;;;;;22.80;16.08;;;6.70;99.90;;;;;;5017209;28;20512;-65
2022/03/29 01:22:53;;;;;;;23.00;16.27;;;6.70;99.90;;;;;;5016953;28;20059;-67
2022/03/29 01:25:46;;;;;;;21.25;15.40;;;6.60;99.90;;;;;;5035296;28;20073;-66
2022/03/29 01:28:14;;;;;;;21.52;14.65;;;6.70;99.90;;;;;;5015123;28;20057;-66
2022/03/29 01:30:39;;;;;;;23.25;15.57;;;6.60;99.90;;;;;;5034090;28;20057;-66
2022/03/29 01:33:09;;;;;;;23.50;16.38;;;6.60;99.90;;;;;;5049849;28;20049;-64
2022/03/29 01:35:35;;;;;;;24.77;16.77;;;6.60;99.90;;;;;;5033564;28;20376;-65
2022/03/29 01:38:00;;;;;;;24.77;16.80;;;6.50;99.90;;;;;;5016465;28;20049;-66
2022/03/29 01:40:27;;;;;;;23.42;15.82;;;6.50;99.90;;;;;;5028201;28;20086;-65
2022/03/29 01:42:58;;;;;;;26.10;16.95;;;6.60;99.90;;;;;;5017855;28;20447;-64
2022/03/29 01:45:27;;;;;;;23.45;16.27;;;6.60;99.90;;;;;;5034832;28;20053;-64
2022/03/29 01:47:53;;;;;;;25.75;17.38;;;6.60;99.90;;;;;;5016554;28;20045;-64
2022/03/29 01:50:19;;;;;;;24.08;16.60;;;6.50;99.90;;;;;;5016893;28;20111;-65
2022/03/29 01:52:46;;;;;;;24.80;16.63;;;6.60;99.90;;;;;;5034566;28;20049;-65
2022/03/29 01:55:13;;;;;;;24.35;16.48;;;6.60;99.90;;;;;;5017227;28;20054;-64
2022/03/29 01:57:39;;;;;;;22.30;15.60;;;6.50;99.90;;;;;;5016740;28;20128;-65
2022/03/29 02:02:53;;;;;;;23.00;16.58;;;6.50;99.90;;;;;;5033773;28;20045;-64
2022/03/29 02:05:19;;;;;;;33.50;17.05;;;6.50;99.90;;;;;;5016494;28;20120;-65
2022/03/29 02:07:45;;;;;;;22.52;15.27;;;6.50;99.90;;;;;;5022365;28;20129;-65
2022/03/29 02:10:15;;;;;;;24.90;16.77;;;6.60;99.90;;;;;;5032890;28;20128;-66
2022/03/29 02:12:41;;;;;;;25.88;17.45;;;6.60;99.90;;;;;;5033608;28;20080;-65
2022/03/29 02:15:07;;;;;;;22.67;16.92;;;6.50;99.90;;;;;;5033447;28;20061;-65
2022/03/29 02:17:33;;;;;;;25.05;18.13;;;6.50;99.90;;;;;;5034089;28;20095;-65
2022/03/29 02:19:58;;;;;;;25.52;17.80;;;6.50;99.90;;;;;;5015755;28;20084;-66
2022/03/29 02:22:24;;;;;;;29.63;17.77;;;6.50;99.90;;;;;;5034186;28;20045;-65
2022/03/29 02:24:49;;;;;;;27.45;17.60;;;6.50;99.90;;;;;;4999869;28;20064;-66
2022/03/29 02:27:15;;;;;;;25.48;17.10;;;6.40;99.90;;;;;;5016034;28;20453;-65
2022/03/29 02:29:40;;;;;;;25.92;17.35;;;6.50;99.90;;;;;;5034312;28;20080;-65
2022/03/29 02:32:06;;;;;;;24.17;15.98;;;6.50;99.90;;;;;;5033533;28;20050;-64
2022/03/29 02:34:32;;;;;;;26.05;18.13;;;6.50;99.90;;;;;;5015731;28;20144;-65
2022/03/29 02:36:58;;;;;;;28.92;17.98;;;6.50;99.90;;;;;;5016632;28;20084;-66
2022/03/29 02:39:23;;;;;;;32.95;17.77;;;6.50;99.90;;;;;;5016677;28;20046;-66
2022/03/29 02:41:49;;;;;;;24.65;16.63;;;6.60;99.90;;;;;;5014764;28;20053;-65
2022/03/29 02:44:14;;;;;;;26.00;17.45;;;6.60;99.90;;;;;;5028646;28;20056;-65
2022/03/29 02:46:40;;;;;;;24.98;16.92;;;6.60;99.90;;;;;;5013927;28;20072;-65
2022/03/29 02:49:06;;;;;;;27.60;17.83;;;6.60;99.90;;;;;;4995883;28;20200;-66
2022/03/29 02:51:32;;;;;;;27.75;17.92;;;6.60;99.90;;;;;;4996357;28;20046;-65
2022/03/29 02:53:57;;;;;;;25.00;17.50;;;6.60;99.90;;;;;;4995988;28;20478;-64
2022/03/29 02:56:23;;;;;;;26.20;18.42;;;6.50;99.90;;;;;;5008195;28;20068;-65
2022/03/29 02:58:48;;;;;;;25.63;17.02;;;6.60;99.90;;;;;;5014673;28;20063;-65
2022/03/29 03:01:14;;;;;;;25.05;17.25;;;6.60;99.90;;;;;;5015270;28;20103;-65
2022/03/29 03:03:39;;;;;;;26.63;19.23;;;6.50;99.90;;;;;;5026937;28;20049;-67
2022/03/29 03:06:05;;;;;;;23.48;16.55;;;6.60;99.90;;;;;;5015110;28;20099;-65
2022/03/29 03:08:30;;;;;;;27.80;17.98;;;6.60;99.90;;;;;;5010874;28;20125;-66
2022/03/29 03:10:56;;;;;;;26.38;16.83;;;6.60;99.90;;;;;;5033271;28;20128;-65
2022/03/29 03:13:22;;;;;;;25.98;18.33;;;6.60;99.90;;;;;;5031885;28;20132;-65
2022/03/29 03:15:47;;;;;;;26.70;16.92;;;6.60;99.90;;;;;;5032616;28;20527;-66
2022/03/29 03:18:13;;;;;;;26.45;16.85;;;6.70;99.90;;;;;;5031620;28;20053;-66
2022/03/29 03:20:39;;;;;;;29.52;17.95;;;6.60;99.90;;;;;;5031852;28;20060;-66
2022/03/29 03:23:04;;;;;;;26.73;17.50;;;6.70;99.90;;;;;;5028939;28;20123;-65
2022/03/29 03:25:30;;;;;;;27.60;17.38;;;6.60;99.90;;;;;;5015427;28;20118;-65
2022/03/29 03:27:56;;;;;;;26.25;16.95;;;6.70;99.90;;;;;;5028628;28;20563;-65
2022/03/29 03:30:21;;;;;;;28.00;18.15;;;6.70;99.90;;;;;;4979220;28;20142;-66
2022/03/29 03:32:48;;;;;;;28.05;18.08;;;6.70;99.90;;;;;;4999940;28;20063;-66
2022/03/29 03:35:14;;;;;;;25.55;17.15;;;6.70;99.90;;;;;;5015331;28;20493;-66
2022/03/29 03:37:40;;;;;;;28.25;18.98;;;6.70;99.90;;;;;;5032416;28;20053;-65
2022/03/29 03:40:08;;;;;;;26.15;18.38;;;6.70;99.90;;;;;;5032737;28;20656;-67
2022/03/29 03:42:35;;;;;;;26.35;17.77;;;6.70;99.90;;;;;;5030817;28;20068;-67
2022/03/29 03:45:02;;;;;;;24.80;17.98;;;6.70;99.90;;;;;;5015472;28;20058;-66
2022/03/29 03:47:28;;;;;;;26.50;17.77;;;6.60;99.90;;;;;;5032773;28;20049;-66
2022/03/29 03:49:53;;;;;;;26.65;17.63;;;6.60;99.90;;;;;;5028797;28;20143;-66
2022/03/29 03:52:19;;;;;;;26.08;17.00;;;6.60;99.90;;;;;;5014736;28;20136;-65
2022/03/29 03:54:45;;;;;;;29.70;18.83;;;6.60;99.90;;;;;;5031643;28;20089;-65
2022/03/29 03:57:11;;;;;;;29.00;17.80;;;6.60;99.90;;;;;;5033832;28;20428;-65
2022/03/29 03:59:36;;;;;;;25.42;18.20;;;6.60;99.90;;;;;;5035638;28;20044;-65
2022/03/29 04:02:02;;;;;;;25.92;18.15;;;6.60;99.90;;;;;;5034620;28;20408;-65
2022/03/29 04:04:28;;;;;;;27.83;16.58;;;6.60;99.90;;;;;;5038767;28;20559;-66
2022/03/29 04:06:54;;;;;;;29.05;17.95;;;6.60;99.90;;;;;;5034256;28;20051;-66
2022/03/29 04:09:20;;;;;;;24.92;17.20;;;6.60;99.90;;;;;;5035004;28;20544;-66
2022/03/29 04:11:46;;;;;;;27.98;17.52;;;6.60;99.90;;;;;;5034122;28;20063;-66
2022/03/29 04:14:12;;;;;;;29.88;18.63;;;6.60;99.90;;;;;;5034625;28;20124;-67
2022/03/29 04:16:37;;;;;;;30.02;18.80;;;6.60;99.90;;;;;;5044101;28;20053;-66
2022/03/29 04:19:03;;;;;;;29.67;19.40;;;6.60;99.90;;;;;;5015265;28;20049;-66
2022/03/29 04:21:29;;;;;;;27.20;17.25;;;6.60;99.90;;;;;;5014598;28;20084;-65
2022/03/29 04:23:54;;;;;;;25.92;17.38;;;6.60;99.90;;;;;;5052816;28;20053;-65
2022/03/29 04:26:20;;;;;;;27.77;18.95;;;6.60;99.90;;;;;;5052252;28;20102;-65
2022/03/29 04:28:46;;;;;;;25.88;17.52;;;6.60;99.90;;;;;;5047441;28;20416;-66
2022/03/29 04:31:11;;;;;;;28.50;17.83;;;6.70;99.90;;;;;;5014778;28;20502;-66
2022/03/29 04:33:37;;;;;;;29.05;18.98;;;6.60;99.90;;;;;;5014171;28;20050;-66
2022/03/29 04:36:04;;;;;;;29.98;17.48;;;6.70;99.90;;;;;;5014524;28;20081;-65
2022/03/29 04:38:30;;;;;;;27.75;19.27;;;6.60;99.90;;;;;;5036596;28;20049;-66
2022/03/29 04:40:55;;;;;;;28.80;18.20;;;6.70;99.90;;;;;;5022035;28;20103;-66
2022/03/29 04:43:21;;;;;;;29.25;18.83;;;6.70;99.90;;;;;;5017698;28;20470;-65
2022/03/29 04:45:47;;;;;;;26.60;17.38;;;6.70;99.90;;;;;;5035714;28;20060;-67
2022/03/29 04:48:13;;;;;;;28.88;18.33;;;6.70;99.90;;;;;;5035521;28;20049;-66
2022/03/29 04:50:40;;;;;;;36.60;19.48;;;6.70;99.90;;;;;;5018226;28;20103;-66
2022/03/29 04:53:06;;;;;;;31.42;19.05;;;6.60;99.90;;;;;;5038968;28;20072;-66
2022/03/29 04:55:32;;;;;;;30.67;18.58;;;6.80;99.90;;;;;;5018432;28;20156;-65
2022/03/29 04:58:00;;;;;;;26.50;18.10;;;6.70;99.90;;;;;;5034962;28;20549;-65
2022/03/29 05:00:25;;;;;;;29.58;17.95;;;6.70;99.90;;;;;;5033684;28;20389;-65
2022/03/29 05:02:51;;;;;;;29.05;19.35;;;6.70;99.90;;;;;;5031785;28;20057;-66
2022/03/29 05:05:16;;;;;;;31.05;19.55;;;6.70;99.90;;;;;;5017643;28;20080;-66
2022/03/29 05:07:43;;;;;;;31.65;19.60;;;6.60;99.90;;;;;;5018156;28;20100;-66
2022/03/29 05:10:11;;;;;;;27.45;18.00;;;6.70;99.90;;;;;;5016930;28;20045;-66
2022/03/29 05:12:48;;;;;;;27.50;17.27;;;6.70;99.90;;;;;;5028433;28;20061;-66
2022/03/29 05:15:16;;;;;;;31.27;19.48;;;6.70;99.90;;;;;;5035038;28;20494;-66
2022/03/29 05:17:42;;;;;;;30.80;19.95;;;6.70;99.90;;;;;;5033704;28;20053;-65
2022/03/29 05:20:10;;;;;;;31.55;19.58;;;6.70;99.90;;;;;;5017480;28;20060;-67
2022/03/29 05:22:53;;;;;;;26.83;18.95;;;6.70;99.90;;;;;;5034110;28;20050;-66
2022/03/29 05:25:23;;;;;;;33.83;19.63;;;6.70;99.90;;;;;;5034038;28;20049;-66
2022/03/29 05:27:51;;;;;;;32.03;19.85;;;6.70;99.90;;;;;;5034320;28;20056;-65
2022/03/29 05:30:17;;;;;;;28.27;18.77;;;6.80;99.90;;;;;;5035132;28;20041;-66
2022/03/29 05:32:43;;;;;;;30.77;20.27;;;6.70;99.90;;;;;;5018033;28;20488;-66
2022/03/29 05:35:10;;;;;;;31.77;20.25;;;6.70;99.90;;;;;;5043886;28;20061;-65
2022/03/29 05:37:37;;;;;;;29.80;19.38;;;6.70;99.90;;;;;;5026913;28;20041;-65
2022/03/29 05:40:06;;;;;;;28.52;19.63;;;6.80;99.90;;;;;;5030715;28;20386;-65
2022/03/29 05:42:39;;;;;;;31.20;19.05;;;6.80;99.90;;;;;;5030783;28;20049;-66
2022/03/29 05:45:05;;;;;;;;;;;6.80;99.90;;;;;;5018026;28;20060;-66
2022/03/29 05:50:15;;;;;;;28.92;18.63;;;6.80;99.90;;;;;;5018818;28;20057;-66
2022/03/29 05:52:41;;;;;;;30.27;18.77;;;6.80;99.90;;;;;;5005561;28;20057;-66
2022/03/29 05:55:08;;;;;;;34.85;19.45;;;6.80;99.90;;;;;;5012463;28;20058;-64
2022/03/29 05:57:34;;;;;;;29.90;19.55;;;6.80;99.90;;;;;;5004546;28;20133;-65
2022/03/29 06:00:01;;;;;;;31.83;20.27;;;6.80;99.90;;;;;;5028070;28;20125;-64
2022/03/29 06:02:27;;;;;;;35.00;19.60;;;6.80;99.90;;;;;;5010434;28;20057;-65
2022/03/29 06:04:54;;;;;;;32.67;18.83;;;6.90;99.90;;;;;;5028143;28;20053;-65
2022/03/29 06:07:20;;;;;;;31.25;19.90;;;6.90;99.90;;;;;;5029851;28;20498;-65
2022/03/29 06:09:46;;;;;;;32.67;19.83;;;6.90;99.90;;;;;;5007067;28;20068;-66
2022/03/29 06:12:12;;;;;;;35.65;19.88;;;6.90;99.90;;;;;;5005907;28;20053;-65
2022/03/29 06:14:39;;;;;;;31.27;18.88;;;6.90;99.90;;;;;;5023318;28;20058;-66
2022/03/29 06:17:06;;;;;;;32.03;19.50;;;6.90;99.90;;;;;;5019252;28;20425;-65
2022/03/29 06:19:32;;;;;;;30.15;18.80;;;6.90;99.90;;;;;;5015306;28;20045;-65
2022/03/29 06:21:58;;;;;;;32.33;18.92;;;6.90;99.90;;;;;;5015227;28;20056;-66
2022/03/29 06:24:24;;;;;;;31.35;19.73;;;6.90;99.90;;;;;;5018716;28;20045;-65
2022/03/29 06:26:49;;;;;;;30.77;20.25;;;7.00;99.90;;;;;;5017983;28;20053;-65
2022/03/29 06:29:15;;;;;;;33.30;19.98;;;7.00;99.90;;;;;;5038091;28;20067;-66
2022/03/29 06:31:41;;;;;;;29.98;18.77;;;7.00;99.90;;;;;;5015704;28;20060;-65
2022/03/29 06:34:07;;;;;;;32.90;19.00;;;7.00;99.90;;;;;;5015520;28;20053;-65
2022/03/29 06:36:33;;;;;;;34.15;19.50;;;7.00;99.90;;;;;;5015336;28;20045;-65
2022/03/29 06:38:59;;;;;;;31.77;19.48;;;7.00;99.90;;;;;;5040602;28;20122;-65
2022/03/29 06:41:24;;;;;;;36.38;20.42;;;7.00;99.90;;;;;;5017096;28;20382;-65
2022/03/29 06:43:50;;;;;;;29.48;18.63;;;7.10;99.90;;;;;;5024916;28;20049;-65
2022/03/29 06:46:16;;;;;;;31.10;20.80;;;7.20;99.90;;;;;;5052958;28;20057;-65
2022/03/29 06:48:42;;;;;;;31.38;19.00;;;7.20;99.90;;;;;;5051130;28;20059;-65
2022/03/29 06:51:09;;;;;;;29.23;19.52;;;7.20;99.90;;;;;;5039867;28;20048;-65
2022/03/29 06:53:38;;;;;;;34.50;19.58;;;7.30;99.90;;;;;;5035167;28;20080;-65
2022/03/29 06:56:04;;;;;;;37.72;20.48;;;7.30;99.90;;;;;;5035121;28;20068;-66
2022/03/29 06:58:30;;;;;;;31.60;19.80;;;7.40;99.90;;;;;;5024330;28;20140;-65
2022/03/29 07:00:56;;;;;;;30.90;17.83;;;7.40;99.90;;;;;;5038538;28;20224;-66
2022/03/29 07:03:23;;;;;;;36.97;20.10;;;7.40;99.90;;;;;;5034205;28;20059;-65
2022/03/29 07:05:49;;;;;;;34.55;19.42;;;7.40;99.90;;;;;;5034382;28;20462;-65
2022/03/29 07:08:20;;;;;;;36.03;20.30;;;7.50;99.90;;;;;;5042468;28;20053;-65
2022/03/29 07:13:30;;;;;;;37.13;21.85;;;7.60;99.90;;;;;;5014755;28;20048;-65
2022/03/29 07:15:56;;;;;;;32.80;18.70;;;7.70;99.90;;;;;;5032697;28;20045;-65
2022/03/29 07:18:22;;;;;;;33.58;19.67;;;7.80;99.90;;;;;;5014659;28;20057;-65
2022/03/29 07:20:47;;;;;;;35.38;21.60;;;7.80;99.90;;;;;;5033199;28;20416;-65
2022/03/29 07:23:13;;;;;;;34.08;19.83;;;7.90;99.90;;;;;;5015195;28;20080;-65
2022/03/29 07:25:38;;;;;;;34.03;20.13;;;8.00;99.90;;;;;;5015856;28;20057;-65
2022/03/29 07:28:04;;;;;;;35.97;20.30;;;8.10;99.90;;;;;;5014424;28;20558;-65
2022/03/29 07:30:33;;;;;;;33.40;20.23;;;8.20;99.90;;;;;;5032954;28;20049;-65
2022/03/29 07:32:59;;;;;;;34.88;21.35;;;8.20;99.90;;;;;;5014686;28;20056;-65
2022/03/29 07:35:28;;;;;;;35.60;22.10;;;8.20;99.90;;;;;;5031928;28;20358;-65
2022/03/29 07:37:54;;;;;;;35.45;21.10;;;8.20;99.90;;;;;;5014747;28;20057;-65
2022/03/29 07:40:24;;;;;;;34.67;20.08;;;8.20;99.90;;;;;;5015736;28;20053;-65
2022/03/29 07:42:51;;;;;;;34.95;20.63;;;8.20;99.90;;;;;;5030598;28;20072;-65
2022/03/29 07:45:17;;;;;;;33.22;20.65;;;8.30;99.90;;;;;;5014756;28;20101;-65
2022/03/29 07:47:44;;;;;;;33.65;20.98;;;8.30;99.90;;;;;;5030380;28;20064;-66
2022/03/29 07:50:12;;;;;;;40.45;23.27;;;8.40;99.90;;;;;;5015155;28;20497;-65
2022/03/29 07:52:40;;;;;;;38.15;22.33;;;8.50;99.90;;;;;;5015154;28;20434;-65
2022/03/29 07:55:07;;;;;;;37.35;23.02;;;8.50;99.90;;;;;;5032557;28;20115;-65
2022/03/29 07:57:33;;;;;;;36.22;22.23;;;8.50;99.90;;;;;;5014430;28;20061;-65
2022/03/29 07:59:59;;;;;;;37.45;22.63;;;8.60;99.90;;;;;;5015142;28;20136;-65
2022/03/29 08:02:25;;;;;;;40.95;23.95;;;8.60;99.90;;;;;;5013528;28;20582;-65
2022/03/29 08:04:50;;;;;;;38.63;22.77;;;8.60;99.90;;;;;;5030660;28;20053;-66
2022/03/29 08:07:16;;;;;;;37.20;21.92;;;8.60;99.90;;;;;;5014711;28;20052;-65
2022/03/29 08:09:42;;;;;;;36.88;22.42;;;8.70;99.90;;;;;;5014960;28;20123;-66
2022/03/29 08:12:08;;;;;;;37.67;22.00;;;8.90;99.90;;;;;;5033981;28;20478;-65
2022/03/29 08:14:34;;;;;;;45.17;24.63;;;9.00;99.90;;;;;;5036802;28;20481;-66
2022/03/29 08:17:00;;;;;;;34.97;23.30;;;9.00;99.90;;;;;;5036176;28;20053;-65
2022/03/29 08:19:26;;;;;;;41.85;23.15;;;9.10;99.90;;;;;;5034812;28;20050;-65
2022/03/29 08:21:53;;;;;;;41.58;21.75;;;9.10;99.90;;;;;;5018952;28;20064;-65
2022/03/29 08:24:20;;;;;;;38.08;22.52;;;9.10;99.90;;;;;;5031566;28;20046;-65
2022/03/29 08:26:48;;;;;;;36.95;21.58;;;9.30;99.90;;;;;;5016046;28;20053;-66
2022/03/29 08:29:16;;;;;;;39.20;22.98;;;9.30;99.90;;;;;;5037133;28;20053;-66
2022/03/29 08:31:43;;;;;;;35.35;21.70;;;9.40;99.90;;;;;;5053509;28;20103;-67
2022/03/29 08:34:10;;;;;;;36.15;20.40;;;9.50;99.90;;;;;;5021274;28;20136;-66
2022/03/29 08:36:36;;;;;;;34.33;21.20;;;9.60;99.90;;;;;;5039714;28;20137;-66
2022/03/29 08:39:03;;;;;;;32.88;20.45;;;9.70;99.90;;;;;;5036624;28;20065;-66
2022/03/29 08:41:34;;;;;;;32.95;20.05;;;9.80;99.90;;;;;;5017593;28;20456;-66
2022/03/29 08:44:01;;;;;;;29.60;18.83;;;9.90;99.90;;;;;;5045159;28;20192;-66
2022/03/29 08:46:36;;;;;;;32.92;18.48;;;9.90;99.90;;;;;;5027480;28;20053;-66
2022/03/29 08:49:03;;;;;;;33.72;18.48;;;9.90;99.90;;;;;;5026959;28;20085;-68
2022/03/29 08:51:29;;;;;;;33.03;18.58;;;9.80;99.90;;;;;;5034360;28;20053;-65
2022/03/29 08:53:54;;;;;;;28.63;18.80;;;9.60;99.90;;;;;;5028817;28;20065;-66
2022/03/29 08:56:20;;;;;;;34.25;18.45;;;9.60;99.90;;;;;;5037442;28;20053;-67
2022/03/29 08:58:46;;;;;;;30.80;17.65;;;9.70;99.90;;;;;;5017006;28;20152;-67
2022/03/29 09:01:12;;;;;;;30.15;17.65;;;9.80;99.90;;;;;;5031682;28;20355;-65
2022/03/29 09:03:37;;;;;;;28.40;17.80;;;9.90;99.90;;;;;;5017154;28;20060;-66
2022/03/29 09:06:08;;;;;;;29.77;17.00;;;10.00;99.90;;;;;;5017556;28;20049;-66
2022/03/29 09:08:45;;;;;;;31.65;17.40;;;10.20;99.90;;;;;;5031472;28;20049;-65
2022/03/29 09:11:12;;;;;;;29.15;17.55;;;10.30;99.90;;;;;;5017004;28;20485;-65
2022/03/29 09:13:39;;;;;;;26.63;16.63;;;10.30;99.90;;;;;;5033380;28;20440;-65
2022/03/29 09:16:07;;;;;;;24.80;16.75;;;10.50;99.90;;;;;;5017448;28;20100;-66
2022/03/29 09:18:33;;;;;;;33.55;16.25;;;10.50;99.90;;;;;;5017385;28;20136;-66
2022/03/29 09:21:13;;;;;;;26.77;15.32;;;10.60;99.90;;;;;;5033815;28;20140;-65
2022/03/29 09:23:52;;;;;;;31.33;16.10;;;10.60;99.90;;;;;;5034149;28;20049;-66
2022/03/29 09:26:26;;;;;;;25.33;15.13;;;10.70;99.90;;;;;;5034190;28;20049;-66
2022/03/29 09:28:51;;;;;;;30.38;16.70;;;10.70;99.90;;;;;;5016108;28;20049;-66
2022/03/29 09:31:19;;;;;;;27.65;16.75;;;10.70;99.90;;;;;;5017158;28;20052;-65
2022/03/29 09:33:46;;;;;;;28.92;16.65;;;10.90;99.90;;;;;;5034666;28;20076;-66
2022/03/29 09:36:14;;;;;;;25.30;16.08;;;10.90;99.90;;;;;;5016314;28;20047;-65
2022/03/29 09:38:47;;;;;;;24.98;15.60;;;11.00;99.90;;;;;;5012089;28;20083;-66
2022/03/29 09:41:26;;;;;;;;;;;10.90;99.90;;;;;;5039237;28;20046;-65
2022/03/29 09:44:02;;;;;;;25.42;14.93;;;11.00;99.90;;;;;;5014207;28;19921;-66
2022/03/29 09:46:29;;;;;;;26.48;15.43;;;11.10;99.90;;;;;;5016661;28;20445;-65
2022/03/29 09:49:00;;;;;;;26.65;14.77;;;11.20;99.90;;;;;;5014968;28;21813;-66
2022/03/29 09:51:29;;;;;;;26.58;15.30;;;11.30;99.90;;;;;;5044947;28;20057;-66
2022/03/29 09:53:58;;;;;;;21.85;15.25;;;11.40;99.90;;;;;;5033707;28;20129;-66
2022/03/29 09:56:28;;;;;;;26.10;15.43;;;11.50;99.90;;;;;;5032021;28;20509;-66
2022/03/29 09:59:11;;;;;;;23.60;15.48;;;11.60;99.90;;;;;;5034247;28;20126;-66
2022/03/29 10:01:53;;;;;;;24.83;15.50;;;11.50;99.90;;;;;;4996896;28;20069;-65
2022/03/29 10:04:20;;;;;;;23.83;14.37;;;11.50;99.90;;;;;;5029913;28;20053;-66
2022/03/29 10:06:48;;;;;;;22.92;14.73;;;11.60;99.90;;;;;;5032901;28;20772;-66
2022/03/29 10:09:26;;;;;;;26.23;16.30;;;11.60;99.90;;;;;;5016223;28;20505;-67
2022/03/29 10:12:03;;;;;;;25.75;15.77;;;11.70;99.90;;;;;;5033628;28;20095;-66
2022/03/29 10:14:32;;;;;;;29.17;16.13;;;11.80;99.90;;;;;;5034068;28;20049;-66
2022/03/29 10:16:58;;;;;;;24.67;15.80;;;12.00;99.90;;;;;;5034071;28;20053;-66
2022/03/29 10:19:25;;;;;;;23.02;15.48;;;12.20;99.90;;;;;;5033731;28;20401;-66
2022/03/29 10:21:53;;;;;;;27.13;15.80;;;12.20;99.90;;;;;;5018399;28;20084;-67
2022/03/29 10:24:19;;;;;;;29.85;16.30;;;12.30;99.90;;;;;;5018696;28;20573;-67
2022/03/29 10:26:48;;;;;;;25.30;15.82;;;12.40;99.90;;;;;;5033301;28;20061;-67
2022/03/29 10:29:14;;;;;;;27.77;16.42;;;12.40;99.90;;;;;;5035979;28;20052;-67
2022/03/29 10:31:57;;;;;;;31.08;16.15;;;12.50;99.90;;;;;;5032952;28;20053;-67
2022/03/29 10:34:26;;;;;;;26.38;16.30;;;12.30;99.90;;;;;;5030717;28;20050;-66
2022/03/29 10:37:09;;;;;;;26.38;16.27;;;12.30;99.90;;;;;;5014014;28;20052;-67
2022/03/29 10:39:47;;;;;;;31.25;16.35;;;12.20;99.90;;;;;;5033970;28;20085;-67
2022/03/29 10:42:38;;;;;;;24.50;15.60;;;12.10;99.90;;;;;;5015175;28;20486;-66
2022/03/29 10:45:20;;;;;;;23.75;15.77;;;12.00;99.90;;;;;;5015697;28;20057;-66
2022/03/29 10:47:58;;;;;;;31.92;15.95;;;12.10;99.90;;;;;;5029583;28;20041;-67
2022/03/29 10:50:46;;;;;;;24.55;16.40;;;12.00;99.90;;;;;;5013604;28;20045;-67
2022/03/29 10:53:45;;;;;;;23.80;16.13;;;12.10;99.90;;;;;;5030915;28;20500;-67
2022/03/29 10:56:19;;;;;;;23.48;16.05;;;12.20;99.90;;;;;;5018227;28;20502;-67
2022/03/29 10:59:02;;;;;;;22.70;16.17;;;12.30;99.90;;;;;;5031813;28;20060;-67
2022/03/29 11:01:29;;;;;;;26.60;17.65;;;12.50;99.90;;;;;;5026817;28;20053;-67
2022/03/29 11:04:13;;;;;;;28.25;16.30;;;12.50;99.90;;;;;;5012525;28;20402;-67
2022/03/29 11:07:05;;;;;;;27.73;16.85;;;12.50;99.90;;;;;;5013399;28;20045;-67
2022/03/29 11:09:31;;;;;;;25.67;17.05;;;12.30;99.90;;;;;;5030861;28;20527;-66
2022/03/29 11:11:57;;;;;;;24.08;17.42;;;12.30;99.90;;;;;;5009239;28;20060;-66
2022/03/29 11:14:35;;;;;;;31.33;18.02;;;12.20;99.90;;;;;;5032933;28;20124;-67
2022/03/29 11:17:01;;;;;;;25.00;18.45;;;11.90;99.90;;;;;;5032716;28;20103;-66
2022/03/29 11:19:47;;;;;;;29.65;17.90;;;11.80;99.90;;;;;;5046895;28;20456;-67
2022/03/29 11:22:39;;;;;;;29.92;18.08;;;12.00;99.90;;;;;;5052528;28;20057;-67
2022/03/29 11:25:09;;;;;;;27.33;16.83;;;12.20;99.90;;;;;;5020886;28;20061;-67
2022/03/29 11:27:36;;;;;;;31.10;17.33;;;12.20;99.90;;;;;;5031995;28;20056;-66
2022/03/29 11:30:08;;;;;;;25.60;16.80;;;12.30;99.90;;;;;;5032894;28;20444;-66
2022/03/29 11:32:35;;;;;;;24.95;17.10;;;12.40;99.90;;;;;;5014817;28;20136;-67
2022/03/29 11:35:04;;;;;;;27.17;16.77;;;12.30;99.90;;;;;;5015160;28;20045;-67
2022/03/29 11:37:43;;;;;;;28.40;17.63;;;12.40;99.90;;;;;;5030704;28;20045;-67
2022/03/29 11:40:11;;;;;;;25.58;16.52;;;12.70;99.90;;;;;;5013593;28;20135;-67
2022/03/29 11:42:44;;;;;;;24.02;15.82;;;12.80;99.90;;;;;;5013276;28;20056;-67
2022/03/29 11:45:11;;;;;;;23.48;16.25;;;13.00;99.90;;;;;;5031746;28;20049;-67
2022/03/29 11:47:37;;;;;;;25.88;16.42;;;13.20;99.90;;;;;;5036615;28;20063;-67
2022/03/29 11:50:03;;;;;;;23.50;15.98;;;13.10;99.90;;;;;;5018978;28;20045;-67
2022/03/29 11:52:34;;;;;;;26.23;16.00;;;13.20;99.90;;;;;;5035805;28;20046;-67
2022/03/29 11:55:00;;;;;;;23.15;16.05;;;13.20;99.90;;;;;;5036391;28;20060;-67
2022/03/29 11:57:30;;;;;;;27.00;15.93;;;13.30;99.90;;;;;;5035062;28;20053;-66
2022/03/29 11:59:58;;;;;;;26.23;15.70;;;13.30;99.90;;;;;;5035954;28;20053;-67
2022/03/29 12:02:25;;;;;;;25.80;15.57;;;13.40;99.90;;;;;;5018790;28;20049;-67
2022/03/29 12:04:52;;;;;;;26.23;15.90;;;13.60;99.90;;;;;;5036595;28;20094;-67
2022/03/29 12:07:34;;;;;;;20.27;15.00;;;13.60;99.90;;;;;;5036312;28;20047;-67
2022/03/29 12:10:00;;;;;;;23.40;16.55;;;13.80;96.10;;;;;;5034868;28;20065;-67
2022/03/29 12:12:26;;;;;;;21.45;14.50;;;14.00;99.90;;;;;;5002290;28;20136;-67
2022/03/29 12:15:06;;;;;;;26.08;16.02;;;13.80;99.90;;;;;;5018785;28;20438;-67
2022/03/29 12:17:34;;;;;;;23.35;15.55;;;13.80;98.60;;;;;;5018540;28;20487;-67
2022/03/29 12:20:00;;;;;;;23.75;14.32;;;13.70;99.90;;;;;;5036431;28;20065;-67
2022/03/29 12:22:29;;;;;;;29.15;15.98;;;13.60;99.90;;;;;;5018115;28;20057;-67
2022/03/29 12:24:57;;;;;;;33.42;17.42;;;13.50;99.80;;;;;;5036270;28;20046;-67
2022/03/29 12:27:23;;;;;;;28.65;15.95;;;13.40;99.90;;;;;;5033963;28;20041;-67
2022/03/29 12:29:56;;;;;;;21.20;16.05;;;13.40;99.90;;;;;;5035348;28;20049;-67
2022/03/29 12:32:22;;;;;;;26.50;15.30;;;13.50;99.90;;;;;;5035019;28;20108;-67
2022/03/29 12:34:59;;;;;;;28.40;16.15;;;13.40;99.90;;;;;;5035517;28;20440;-67
2022/03/29 12:37:26;;;;;;;22.00;14.52;;;13.50;97.10;;;;;;5033361;28;20118;-67
2022/03/29 12:39:56;;;;;;;23.70;16.08;;;13.60;99.90;;;;;;5034800;28;20045;-67
2022/03/29 12:42:21;;;;;;;25.38;15.30;;;13.60;98.30;;;;;;5033598;28;20049;-67
2022/03/29 12:44:56;;;;;;;23.48;14.95;;;13.90;96.40;;;;;;5035311;28;20171;-67
2022/03/29 12:47:25;;;;;;;25.73;14.15;;;13.90;89.20;;;;;;5035851;28;20124;-67
2022/03/29 12:49:51;;;;;;;24.50;14.88;;;13.80;91.60;;;;;;5018157;28;20061;-67